sensor_id;sensor_type;location;lat;lon;timestamp;P1;durP1;ratioP1;P2;durP2;ratioP2
18411;SDS011;27097;51.738;19.472;2022-07-06T00:02:18;10.90;;;8.25;;
18411;SDS011;27097;51.738;19.472;2022-07-06T00:04:45;10.57;;;7.55;;
18411;SDS011;27097;51.738;19.472;2022-07-06T00:07:13;9.48;;;7.38;;
18411;SDS011;27097;51.738;19.472;2022-07-06T00:09:41;13.60;;;7.85;;
18411;SDS011;27097;51.738;19.472;2022-07-06T00:12:09;11.38;;;6.80;;
18411;SDS011;27097;51.738;19.472;2022-07-06T00:14:36;10.02;;;7.68;;
18411;SDS011;27097;51.738;19.472;2022-07-06T00:17:03;8.65;;;6.90;;
18411;SDS011;27097;51.738;19.472;2022-07-06T00:19:31;8.80;;;6.90;;
18411;SDS011;27097;51.738;19.472;2022-07-06T00:21:58;9.18;;;6.78;;
18411;SDS011;27097;51.738;19.472;2022-07-06T00:24:25;10.13;;;7.10;;
18411;SDS011;27097;51.738;19.472;2022-07-06T00:26:54;11.57;;;6.72;;
18411;SDS011;27097;51.738;19.472;2022-07-06T00:29:21;15.57;;;7.03;;
18411;SDS011;27097;51.738;19.472;2022-07-06T00:31:48;10.70;;;6.63;;
18411;SDS011;27097;51.738;19.472;2022-07-06T00:34:15;11.48;;;6.72;;
18411;SDS011;27097;51.738;19.472;2022-07-06T00:36:42;8.43;;;6.10;;
18411;SDS011;27097;51.738;19.472;2022-07-06T00:39:09;9.23;;;6.15;;
18411;SDS011;27097;51.738;19.472;2022-07-06T00:41:37;8.60;;;6.43;;
18411;SDS011;27097;51.738;19.472;2022-07-06T00:44:08;9.30;;;5.82;;
18411;SDS011;27097;51.738;19.472;2022-07-06T00:46:35;9.88;;;6.13;;
18411;SDS011;27097;51.738;19.472;2022-07-06T00:49:02;10.18;;;5.90;;
18411;SDS011;27097;51.738;19.472;2022-07-06T00:51:30;8.80;;;5.97;;
18411;SDS011;27097;51.738;19.472;2022-07-06T00:54:03;9.45;;;5.80;;
18411;SDS011;27097;51.738;19.472;2022-07-06T00:56:31;10.80;;;6.00;;
18411;SDS011;27097;51.738;19.472;2022-07-06T00:59:00;9.90;;;5.80;;
18411;SDS011;27097;51.738;19.472;2022-07-06T01:01:29;7.78;;;5.63;;
18411;SDS011;27097;51.738;19.472;2022-07-06T01:03:56;8.02;;;5.85;;
18411;SDS011;27097;51.738;19.472;2022-07-06T01:06:24;8.43;;;5.72;;
18411;SDS011;27097;51.738;19.472;2022-07-06T01:08:51;7.80;;;5.57;;
18411;SDS011;27097;51.738;19.472;2022-07-06T01:11:18;8.80;;;5.90;;
18411;SDS011;27097;51.738;19.472;2022-07-06T01:13:46;8.65;;;5.38;;
18411;SDS011;27097;51.738;19.472;2022-07-06T01:16:13;8.50;;;5.13;;
18411;SDS011;27097;51.738;19.472;2022-07-06T01:18:42;13.13;;;6.10;;
18411;SDS011;27097;51.738;19.472;2022-07-06T01:21:11;9.23;;;5.50;;
18411;SDS011;27097;51.738;19.472;2022-07-06T01:23:40;7.47;;;5.38;;
18411;SDS011;27097;51.738;19.472;2022-07-06T01:26:11;6.80;;;5.25;;
18411;SDS011;27097;51.738;19.472;2022-07-06T01:28:39;6.55;;;5.43;;
18411;SDS011;27097;51.738;19.472;2022-07-06T01:31:13;6.65;;;4.85;;
18411;SDS011;27097;51.738;19.472;2022-07-06T01:33:40;7.97;;;5.22;;
18411;SDS011;27097;51.738;19.472;2022-07-06T01:36:08;5.93;;;5.05;;
18411;SDS011;27097;51.738;19.472;2022-07-06T01:38:44;6.43;;;4.88;;
18411;SDS011;27097;51.738;19.472;2022-07-06T01:41:11;9.70;;;5.05;;
18411;SDS011;27097;51.738;19.472;2022-07-06T01:43:39;6.88;;;5.10;;
18411;SDS011;27097;51.738;19.472;2022-07-06T01:46:06;6.63;;;5.10;;
18411;SDS011;27097;51.738;19.472;2022-07-06T01:48:34;6.53;;;4.78;;
18411;SDS011;27097;51.738;19.472;2022-07-06T01:51:02;9.27;;;5.20;;
18411;SDS011;27097;51.738;19.472;2022-07-06T01:53:29;5.78;;;4.50;;
18411;SDS011;27097;51.738;19.472;2022-07-06T01:55:58;6.78;;;5.10;;
18411;SDS011;27097;51.738;19.472;2022-07-06T01:58:25;7.03;;;4.57;;
18411;SDS011;27097;51.738;19.472;2022-07-06T02:00:52;6.00;;;4.80;;
18411;SDS011;27097;51.738;19.472;2022-07-06T02:03:19;7.68;;;4.70;;
18411;SDS011;27097;51.738;19.472;2022-07-06T02:05:46;6.97;;;4.70;;
18411;SDS011;27097;51.738;19.472;2022-07-06T02:08:13;5.72;;;4.82;;
18411;SDS011;27097;51.738;19.472;2022-07-06T02:10:40;5.20;;;4.43;;
18411;SDS011;27097;51.738;19.472;2022-07-06T02:13:09;6.20;;;4.40;;
18411;SDS011;27097;51.738;19.472;2022-07-06T02:15:36;7.10;;;4.68;;
18411;SDS011;27097;51.738;19.472;2022-07-06T02:18:06;6.68;;;4.32;;
18411;SDS011;27097;51.738;19.472;2022-07-06T02:20:33;6.25;;;4.70;;
18411;SDS011;27097;51.738;19.472;2022-07-06T02:23:00;8.43;;;4.90;;
18411;SDS011;27097;51.738;19.472;2022-07-06T02:25:27;9.30;;;4.40;;
18411;SDS011;27097;51.738;19.472;2022-07-06T02:27:54;5.43;;;4.53;;
18411;SDS011;27097;51.738;19.472;2022-07-06T02:30:23;7.82;;;4.65;;
18411;SDS011;27097;51.738;19.472;2022-07-06T02:32:50;7.55;;;5.20;;
18411;SDS011;27097;51.738;19.472;2022-07-06T02:35:17;6.28;;;4.80;;
18411;SDS011;27097;51.738;19.472;2022-07-06T02:37:44;7.05;;;4.40;;
18411;SDS011;27097;51.738;19.472;2022-07-06T02:40:11;7.10;;;4.60;;
18411;SDS011;27097;51.738;19.472;2022-07-06T02:42:38;9.82;;;5.10;;
18411;SDS011;27097;51.738;19.472;2022-07-06T02:45:06;8.68;;;4.72;;
18411;SDS011;27097;51.738;19.472;2022-07-06T02:47:35;5.18;;;4.50;;
18411;SDS011;27097;51.738;19.472;2022-07-06T02:50:03;10.32;;;4.95;;
18411;SDS011;27097;51.738;19.472;2022-07-06T02:52:31;7.32;;;4.90;;
18411;SDS011;27097;51.738;19.472;2022-07-06T02:54:58;10.02;;;5.13;;
18411;SDS011;27097;51.738;19.472;2022-07-06T02:57:25;7.13;;;4.70;;
18411;SDS011;27097;51.738;19.472;2022-07-06T02:59:52;7.15;;;5.30;;
18411;SDS011;27097;51.738;19.472;2022-07-06T03:02:19;9.57;;;5.03;;
18411;SDS011;27097;51.738;19.472;2022-07-06T03:04:47;10.35;;;5.22;;
18411;SDS011;27097;51.738;19.472;2022-07-06T03:07:15;7.85;;;5.60;;
18411;SDS011;27097;51.738;19.472;2022-07-06T03:09:42;10.73;;;5.45;;
18411;SDS011;27097;51.738;19.472;2022-07-06T03:12:09;10.15;;;5.90;;
18411;SDS011;27097;51.738;19.472;2022-07-06T03:14:36;8.82;;;5.10;;
18411;SDS011;27097;51.738;19.472;2022-07-06T03:17:06;7.78;;;5.10;;
18411;SDS011;27097;51.738;19.472;2022-07-06T03:19:33;8.35;;;5.80;;
18411;SDS011;27097;51.738;19.472;2022-07-06T03:22:01;12.02;;;5.70;;
18411;SDS011;27097;51.738;19.472;2022-07-06T03:24:28;10.40;;;5.30;;
18411;SDS011;27097;51.738;19.472;2022-07-06T03:26:55;7.93;;;5.60;;
18411;SDS011;27097;51.738;19.472;2022-07-06T03:29:22;13.10;;;5.50;;
18411;SDS011;27097;51.738;19.472;2022-07-06T03:31:49;9.30;;;5.47;;
18411;SDS011;27097;51.738;19.472;2022-07-06T03:34:16;9.68;;;5.57;;
18411;SDS011;27097;51.738;19.472;2022-07-06T03:36:43;8.45;;;5.70;;
18411;SDS011;27097;51.738;19.472;2022-07-06T03:39:12;10.77;;;5.40;;
18411;SDS011;27097;51.738;19.472;2022-07-06T03:41:39;9.40;;;5.70;;
18411;SDS011;27097;51.738;19.472;2022-07-06T03:44:06;8.73;;;5.20;;
18411;SDS011;27097;51.738;19.472;2022-07-06T03:46:33;7.97;;;5.38;;
18411;SDS011;27097;51.738;19.472;2022-07-06T03:49:00;8.80;;;5.63;;
18411;SDS011;27097;51.738;19.472;2022-07-06T03:51:27;9.13;;;5.28;;
18411;SDS011;27097;51.738;19.472;2022-07-06T03:53:54;6.82;;;5.22;;
18411;SDS011;27097;51.738;19.472;2022-07-06T03:56:23;10.38;;;5.05;;
18411;SDS011;27097;51.738;19.472;2022-07-06T03:58:59;9.60;;;5.43;;
18411;SDS011;27097;51.738;19.472;2022-07-06T04:01:27;7.43;;;5.13;;
18411;SDS011;27097;51.738;19.472;2022-07-06T04:03:55;7.57;;;5.10;;
18411;SDS011;27097;51.738;19.472;2022-07-06T04:06:22;7.32;;;5.07;;
18411;SDS011;27097;51.738;19.472;2022-07-06T04:08:49;7.53;;;5.20;;
18411;SDS011;27097;51.738;19.472;2022-07-06T04:11:16;7.40;;;4.75;;
18411;SDS011;27097;51.738;19.472;2022-07-06T04:13:45;6.82;;;4.70;;
18411;SDS011;27097;51.738;19.472;2022-07-06T04:16:12;6.85;;;4.55;;
18411;SDS011;27097;51.738;19.472;2022-07-06T04:18:39;7.60;;;4.40;;
18411;SDS011;27097;51.738;19.472;2022-07-06T04:21:06;7.55;;;4.43;;
18411;SDS011;27097;51.738;19.472;2022-07-06T04:23:33;6.28;;;4.10;;
18411;SDS011;27097;51.738;19.472;2022-07-06T04:26:00;7.72;;;4.38;;
18411;SDS011;27097;51.738;19.472;2022-07-06T04:28:27;5.85;;;4.15;;
18411;SDS011;27097;51.738;19.472;2022-07-06T04:30:56;7.63;;;4.13;;
18411;SDS011;27097;51.738;19.472;2022-07-06T04:33:23;7.43;;;4.13;;
18411;SDS011;27097;51.738;19.472;2022-07-06T04:35:50;6.25;;;4.25;;
18411;SDS011;27097;51.738;19.472;2022-07-06T04:38:17;7.13;;;4.28;;
18411;SDS011;27097;51.738;19.472;2022-07-06T04:40:44;5.20;;;3.70;;
18411;SDS011;27097;51.738;19.472;2022-07-06T04:43:12;5.53;;;3.60;;
18411;SDS011;27097;51.738;19.472;2022-07-06T04:45:39;8.27;;;3.85;;
18411;SDS011;27097;51.738;19.472;2022-07-06T04:48:08;6.70;;;3.60;;
18411;SDS011;27097;51.738;19.472;2022-07-06T04:50:35;9.00;;;3.65;;
18411;SDS011;27097;51.738;19.472;2022-07-06T04:53:02;6.18;;;3.55;;
18411;SDS011;27097;51.738;19.472;2022-07-06T04:55:29;7.35;;;3.45;;
18411;SDS011;27097;51.738;19.472;2022-07-06T04:57:56;3.97;;;3.20;;
18411;SDS011;27097;51.738;19.472;2022-07-06T05:00:23;6.60;;;3.40;;
18411;SDS011;27097;51.738;19.472;2022-07-06T05:02:51;4.97;;;3.33;;
18411;SDS011;27097;51.738;19.472;2022-07-06T05:05:19;6.07;;;3.47;;
18411;SDS011;27097;51.738;19.472;2022-07-06T05:07:46;4.20;;;3.00;;
18411;SDS011;27097;51.738;19.472;2022-07-06T05:10:13;11.50;;;4.18;;
18411;SDS011;27097;51.738;19.472;2022-07-06T05:12:41;12.23;;;3.80;;
18411;SDS011;27097;51.738;19.472;2022-07-06T05:15:08;8.30;;;3.75;;
18411;SDS011;27097;51.738;19.472;2022-07-06T05:17:36;8.05;;;3.22;;
18411;SDS011;27097;51.738;19.472;2022-07-06T05:20:04;10.77;;;3.50;;
18411;SDS011;27097;51.738;19.472;2022-07-06T05:22:33;9.90;;;3.50;;
18411;SDS011;27097;51.738;19.472;2022-07-06T05:25:00;7.97;;;2.95;;
18411;SDS011;27097;51.738;19.472;2022-07-06T05:27:27;8.35;;;3.15;;
18411;SDS011;27097;51.738;19.472;2022-07-06T05:29:54;10.27;;;3.03;;
18411;SDS011;27097;51.738;19.472;2022-07-06T05:32:22;10.93;;;3.63;;
18411;SDS011;27097;51.738;19.472;2022-07-06T05:34:49;8.25;;;3.35;;
18411;SDS011;27097;51.738;19.472;2022-07-06T05:37:17;3.90;;;2.47;;
18411;SDS011;27097;51.738;19.472;2022-07-06T05:39:45;6.25;;;2.97;;
18411;SDS011;27097;51.738;19.472;2022-07-06T05:42:14;9.60;;;2.92;;
18411;SDS011;27097;51.738;19.472;2022-07-06T05:44:41;9.57;;;2.72;;
18411;SDS011;27097;51.738;19.472;2022-07-06T05:47:08;7.30;;;2.67;;
18411;SDS011;27097;51.738;19.472;2022-07-06T05:49:52;4.50;;;2.30;;
18411;SDS011;27097;51.738;19.472;2022-07-06T05:52:38;8.45;;;2.53;;
18411;SDS011;27097;51.738;19.472;2022-07-06T05:55:07;8.30;;;2.38;;
18411;SDS011;27097;51.738;19.472;2022-07-06T05:57:34;5.88;;;2.47;;
18411;SDS011;27097;51.738;19.472;2022-07-06T06:00:01;5.05;;;2.53;;
18411;SDS011;27097;51.738;19.472;2022-07-06T06:02:35;6.53;;;2.35;;
18411;SDS011;27097;51.738;19.472;2022-07-06T06:05:04;6.93;;;2.50;;
18411;SDS011;27097;51.738;19.472;2022-07-06T06:07:32;4.78;;;2.30;;
18411;SDS011;27097;51.738;19.472;2022-07-06T06:10:01;6.80;;;2.55;;
18411;SDS011;27097;51.738;19.472;2022-07-06T06:12:30;9.48;;;2.30;;
18411;SDS011;27097;51.738;19.472;2022-07-06T06:14:57;7.22;;;2.10;;
18411;SDS011;27097;51.738;19.472;2022-07-06T06:17:24;5.75;;;2.00;;
18411;SDS011;27097;51.738;19.472;2022-07-06T06:19:51;3.63;;;2.10;;
18411;SDS011;27097;51.738;19.472;2022-07-06T06:22:18;4.85;;;2.05;;
18411;SDS011;27097;51.738;19.472;2022-07-06T06:24:45;4.80;;;2.00;;
18411;SDS011;27097;51.738;19.472;2022-07-06T06:27:13;4.30;;;1.90;;
18411;SDS011;27097;51.738;19.472;2022-07-06T06:29:41;3.25;;;1.80;;
18411;SDS011;27097;51.738;19.472;2022-07-06T06:32:09;3.53;;;1.90;;
18411;SDS011;27097;51.738;19.472;2022-07-06T06:34:36;4.55;;;1.80;;
18411;SDS011;27097;51.738;19.472;2022-07-06T06:37:04;10.02;;;2.08;;
18411;SDS011;27097;51.738;19.472;2022-07-06T06:39:31;6.57;;;2.22;;
18411;SDS011;27097;51.738;19.472;2022-07-06T06:41:58;2.58;;;1.80;;
18411;SDS011;27097;51.738;19.472;2022-07-06T06:44:25;4.50;;;1.65;;
18411;SDS011;27097;51.738;19.472;2022-07-06T06:46:53;2.95;;;1.85;;
18411;SDS011;27097;51.738;19.472;2022-07-06T06:49:20;4.20;;;1.67;;
18411;SDS011;27097;51.738;19.472;2022-07-06T06:51:47;5.03;;;1.60;;
18411;SDS011;27097;51.738;19.472;2022-07-06T06:54:15;2.22;;;1.40;;
18411;SDS011;27097;51.738;19.472;2022-07-06T06:56:42;3.13;;;1.92;;
18411;SDS011;27097;51.738;19.472;2022-07-06T06:59:09;4.22;;;1.98;;
18411;SDS011;27097;51.738;19.472;2022-07-06T07:01:36;4.95;;;2.45;;
18411;SDS011;27097;51.738;19.472;2022-07-06T07:04:04;6.57;;;2.22;;
18411;SDS011;27097;51.738;19.472;2022-07-06T07:06:32;5.30;;;2.40;;
18411;SDS011;27097;51.738;19.472;2022-07-06T07:08:59;3.60;;;2.30;;
18411;SDS011;27097;51.738;19.472;2022-07-06T07:11:26;3.17;;;2.13;;
18411;SDS011;27097;51.738;19.472;2022-07-06T07:13:53;7.60;;;2.10;;
18411;SDS011;27097;51.738;19.472;2022-07-06T07:16:20;3.22;;;1.98;;
18411;SDS011;27097;51.738;19.472;2022-07-06T07:18:49;2.58;;;1.63;;
18411;SDS011;27097;51.738;19.472;2022-07-06T07:21:17;7.55;;;2.10;;
18411;SDS011;27097;51.738;19.472;2022-07-06T07:23:44;5.43;;;1.98;;
18411;SDS011;27097;51.738;19.472;2022-07-06T07:26:11;4.45;;;1.90;;
18411;SDS011;27097;51.738;19.472;2022-07-06T07:28:39;4.50;;;2.05;;
18411;SDS011;27097;51.738;19.472;2022-07-06T07:31:06;6.53;;;1.80;;
18411;SDS011;27097;51.738;19.472;2022-07-06T07:33:33;5.05;;;1.70;;
18411;SDS011;27097;51.738;19.472;2022-07-06T07:36:00;2.53;;;1.63;;
18411;SDS011;27097;51.738;19.472;2022-07-06T07:38:29;3.13;;;1.50;;
18411;SDS011;27097;51.738;19.472;2022-07-06T07:40:56;8.75;;;2.08;;
18411;SDS011;27097;51.738;19.472;2022-07-06T07:43:23;8.15;;;1.63;;
18411;SDS011;27097;51.738;19.472;2022-07-06T07:45:50;5.07;;;1.80;;
18411;SDS011;27097;51.738;19.472;2022-07-06T07:48:17;4.53;;;1.77;;
18411;SDS011;27097;51.738;19.472;2022-07-06T07:50:44;3.45;;;1.70;;
18411;SDS011;27097;51.738;19.472;2022-07-06T07:53:11;4.05;;;1.70;;
18411;SDS011;27097;51.738;19.472;2022-07-06T07:55:39;5.25;;;1.70;;
18411;SDS011;27097;51.738;19.472;2022-07-06T07:58:06;2.45;;;1.65;;
18411;SDS011;27097;51.738;19.472;2022-07-06T08:00:33;2.30;;;1.80;;
18411;SDS011;27097;51.738;19.472;2022-07-06T08:03:00;3.83;;;1.70;;
18411;SDS011;27097;51.738;19.472;2022-07-06T08:05:28;3.60;;;1.70;;
18411;SDS011;27097;51.738;19.472;2022-07-06T08:07:55;9.50;;;2.08;;
18411;SDS011;27097;51.738;19.472;2022-07-06T08:10:22;13.25;;;2.55;;
18411;SDS011;27097;51.738;19.472;2022-07-06T08:12:50;9.00;;;2.17;;
18411;SDS011;27097;51.738;19.472;2022-07-06T08:15:17;4.70;;;1.70;;
18411;SDS011;27097;51.738;19.472;2022-07-06T08:17:45;5.07;;;1.65;;
18411;SDS011;27097;51.738;19.472;2022-07-06T08:20:12;8.75;;;2.10;;
18411;SDS011;27097;51.738;19.472;2022-07-06T08:22:39;5.28;;;1.60;;
18411;SDS011;27097;51.738;19.472;2022-07-06T08:25:08;5.35;;;1.95;;
18411;SDS011;27097;51.738;19.472;2022-07-06T08:27:35;6.53;;;1.85;;
18411;SDS011;27097;51.738;19.472;2022-07-06T08:30:05;4.78;;;1.58;;
18411;SDS011;27097;51.738;19.472;2022-07-06T08:32:32;4.35;;;1.65;;
18411;SDS011;27097;51.738;19.472;2022-07-06T08:35:02;5.63;;;1.83;;
18411;SDS011;27097;51.738;19.472;2022-07-06T08:37:30;2.38;;;1.38;;
18411;SDS011;27097;51.738;19.472;2022-07-06T08:39:57;5.38;;;2.20;;
18411;SDS011;27097;51.738;19.472;2022-07-06T08:42:24;5.75;;;1.80;;
18411;SDS011;27097;51.738;19.472;2022-07-06T08:44:58;3.50;;;1.73;;
18411;SDS011;27097;51.738;19.472;2022-07-06T08:47:27;4.85;;;1.60;;
18411;SDS011;27097;51.738;19.472;2022-07-06T08:49:54;4.03;;;1.45;;
18411;SDS011;27097;51.738;19.472;2022-07-06T08:52:22;5.80;;;1.75;;
18411;SDS011;27097;51.738;19.472;2022-07-06T08:54:50;5.03;;;1.50;;
18411;SDS011;27097;51.738;19.472;2022-07-06T08:57:17;4.45;;;1.67;;
18411;SDS011;27097;51.738;19.472;2022-07-06T08:59:45;6.65;;;1.52;;
18411;SDS011;27097;51.738;19.472;2022-07-06T09:02:12;2.58;;;1.48;;
18411;SDS011;27097;51.738;19.472;2022-07-06T09:04:41;3.72;;;1.48;;
18411;SDS011;27097;51.738;19.472;2022-07-06T09:07:09;3.95;;;1.58;;
18411;SDS011;27097;51.738;19.472;2022-07-06T09:09:37;3.58;;;1.60;;
18411;SDS011;27097;51.738;19.472;2022-07-06T09:12:08;4.20;;;1.50;;
18411;SDS011;27097;51.738;19.472;2022-07-06T09:14:38;2.00;;;1.48;;
18411;SDS011;27097;51.738;19.472;2022-07-06T09:17:05;3.90;;;1.50;;
18411;SDS011;27097;51.738;19.472;2022-07-06T09:19:34;5.38;;;1.60;;
18411;SDS011;27097;51.738;19.472;2022-07-06T09:22:03;3.30;;;1.58;;
18411;SDS011;27097;51.738;19.472;2022-07-06T09:24:30;3.05;;;1.60;;
18411;SDS011;27097;51.738;19.472;2022-07-06T09:27:02;3.13;;;1.40;;
18411;SDS011;27097;51.738;19.472;2022-07-06T09:29:36;4.15;;;1.60;;
18411;SDS011;27097;51.738;19.472;2022-07-06T09:32:03;4.82;;;1.70;;
18411;SDS011;27097;51.738;19.472;2022-07-06T09:34:40;2.85;;;1.50;;
18411;SDS011;27097;51.738;19.472;2022-07-06T09:37:09;2.28;;;1.30;;
18411;SDS011;27097;51.738;19.472;2022-07-06T09:39:37;8.68;;;1.60;;
18411;SDS011;27097;51.738;19.472;2022-07-06T09:42:04;5.97;;;1.50;;
18411;SDS011;27097;51.738;19.472;2022-07-06T09:44:34;6.28;;;1.70;;
18411;SDS011;27097;51.738;19.472;2022-07-06T09:47:03;4.03;;;1.60;;
18411;SDS011;27097;51.738;19.472;2022-07-06T09:49:32;1.70;;;1.38;;
18411;SDS011;27097;51.738;19.472;2022-07-06T09:51:59;2.35;;;1.60;;
18411;SDS011;27097;51.738;19.472;2022-07-06T09:54:29;3.35;;;1.67;;
18411;SDS011;27097;51.738;19.472;2022-07-06T09:56:58;3.10;;;1.42;;
18411;SDS011;27097;51.738;19.472;2022-07-06T09:59:25;2.05;;;1.40;;
18411;SDS011;27097;51.738;19.472;2022-07-06T10:01:54;5.88;;;1.50;;
18411;SDS011;27097;51.738;19.472;2022-07-06T10:04:22;1.77;;;1.48;;
18411;SDS011;27097;51.738;19.472;2022-07-06T10:06:49;2.42;;;1.60;;
18411;SDS011;27097;51.738;19.472;2022-07-06T10:09:18;1.55;;;1.45;;
18411;SDS011;27097;51.738;19.472;2022-07-06T10:11:49;4.90;;;1.40;;
18411;SDS011;27097;51.738;19.472;2022-07-06T10:14:18;3.80;;;1.60;;
18411;SDS011;27097;51.738;19.472;2022-07-06T10:16:46;4.22;;;1.67;;
18411;SDS011;27097;51.738;19.472;2022-07-06T10:19:15;4.47;;;1.70;;
18411;SDS011;27097;51.738;19.472;2022-07-06T10:21:43;2.45;;;1.65;;
18411;SDS011;27097;51.738;19.472;2022-07-06T10:24:11;3.42;;;1.50;;
18411;SDS011;27097;51.738;19.472;2022-07-06T10:26:40;1.63;;;1.52;;
18411;SDS011;27097;51.738;19.472;2022-07-06T10:29:08;3.63;;;1.73;;
18411;SDS011;27097;51.738;19.472;2022-07-06T10:31:37;3.38;;;1.70;;
18411;SDS011;27097;51.738;19.472;2022-07-06T10:34:06;3.72;;;1.73;;
18411;SDS011;27097;51.738;19.472;2022-07-06T10:36:39;2.20;;;1.63;;
18411;SDS011;27097;51.738;19.472;2022-07-06T10:39:06;5.45;;;1.65;;
18411;SDS011;27097;51.738;19.472;2022-07-06T10:41:54;4.35;;;1.60;;
18411;SDS011;27097;51.738;19.472;2022-07-06T10:44:31;3.42;;;1.40;;
18411;SDS011;27097;51.738;19.472;2022-07-06T10:47:02;5.20;;;1.70;;
18411;SDS011;27097;51.738;19.472;2022-07-06T10:49:48;7.07;;;1.90;;
18411;SDS011;27097;51.738;19.472;2022-07-06T10:52:16;7.72;;;1.70;;
18411;SDS011;27097;51.738;19.472;2022-07-06T10:54:43;2.03;;;1.40;;
18411;SDS011;27097;51.738;19.472;2022-07-06T10:57:12;2.45;;;1.52;;
18411;SDS011;27097;51.738;19.472;2022-07-06T10:59:42;5.72;;;1.58;;
18411;SDS011;27097;51.738;19.472;2022-07-06T11:02:29;5.53;;;1.55;;
18411;SDS011;27097;51.738;19.472;2022-07-06T11:05:05;3.72;;;1.50;;
18411;SDS011;27097;51.738;19.472;2022-07-06T11:07:48;4.40;;;1.70;;
18411;SDS011;27097;51.738;19.472;2022-07-06T11:10:16;3.25;;;1.60;;
18411;SDS011;27097;51.738;19.472;2022-07-06T11:12:44;2.95;;;1.52;;
18411;SDS011;27097;51.738;19.472;2022-07-06T11:15:13;1.52;;;1.35;;
18411;SDS011;27097;51.738;19.472;2022-07-06T11:18:15;3.53;;;1.55;;
18411;SDS011;27097;51.738;19.472;2022-07-06T11:23:41;2.40;;;1.30;;
18411;SDS011;27097;51.738;19.472;2022-07-06T11:26:09;1.55;;;1.38;;
18411;SDS011;27097;51.738;19.472;2022-07-06T11:28:36;1.60;;;1.30;;
18411;SDS011;27097;51.738;19.472;2022-07-06T11:31:05;1.90;;;1.30;;
18411;SDS011;27097;51.738;19.472;2022-07-06T11:33:32;5.38;;;1.75;;
18411;SDS011;27097;51.738;19.472;2022-07-06T11:38:42;4.18;;;1.60;;
18411;SDS011;27097;51.738;19.472;2022-07-06T11:41:10;3.00;;;1.50;;
18411;SDS011;27097;51.738;19.472;2022-07-06T11:43:39;3.70;;;1.40;;
18411;SDS011;27097;51.738;19.472;2022-07-06T11:46:21;2.88;;;1.33;;
18411;SDS011;27097;51.738;19.472;2022-07-06T11:48:51;2.63;;;1.33;;
18411;SDS011;27097;51.738;19.472;2022-07-06T11:51:19;3.20;;;1.40;;
18411;SDS011;27097;51.738;19.472;2022-07-06T11:53:46;4.88;;;1.55;;
18411;SDS011;27097;51.738;19.472;2022-07-06T11:56:15;2.47;;;1.40;;
18411;SDS011;27097;51.738;19.472;2022-07-06T11:58:44;1.83;;;1.50;;
18411;SDS011;27097;51.738;19.472;2022-07-06T12:01:12;3.17;;;1.40;;
18411;SDS011;27097;51.738;19.472;2022-07-06T12:03:41;1.85;;;1.30;;
18411;SDS011;27097;51.738;19.472;2022-07-06T12:06:13;1.75;;;1.38;;
18411;SDS011;27097;51.738;19.472;2022-07-06T12:08:42;1.80;;;1.30;;
18411;SDS011;27097;51.738;19.472;2022-07-06T12:11:10;4.22;;;1.48;;
18411;SDS011;27097;51.738;19.472;2022-07-06T12:13:44;2.30;;;1.60;;
18411;SDS011;27097;51.738;19.472;2022-07-06T12:16:11;1.67;;;1.25;;
18411;SDS011;27097;51.738;19.472;2022-07-06T12:18:43;2.22;;;1.30;;
18411;SDS011;27097;51.738;19.472;2022-07-06T12:21:11;6.80;;;1.60;;
18411;SDS011;27097;51.738;19.472;2022-07-06T12:23:42;1.88;;;1.20;;
18411;SDS011;27097;51.738;19.472;2022-07-06T12:26:10;3.67;;;1.20;;
18411;SDS011;27097;51.738;19.472;2022-07-06T12:28:38;2.83;;;1.70;;
18411;SDS011;27097;51.738;19.472;2022-07-06T12:31:06;2.08;;;1.40;;
18411;SDS011;27097;51.738;19.472;2022-07-06T12:33:34;2.38;;;1.50;;
18411;SDS011;27097;51.738;19.472;2022-07-06T12:36:12;3.28;;;1.30;;
18411;SDS011;27097;51.738;19.472;2022-07-06T12:38:44;3.35;;;1.50;;
18411;SDS011;27097;51.738;19.472;2022-07-06T12:41:25;3.08;;;1.27;;
18411;SDS011;27097;51.738;19.472;2022-07-06T12:44:01;1.67;;;1.20;;
18411;SDS011;27097;51.738;19.472;2022-07-06T12:46:31;1.55;;;1.20;;
18411;SDS011;27097;51.738;19.472;2022-07-06T12:49:00;3.10;;;1.23;;
18411;SDS011;27097;51.738;19.472;2022-07-06T12:51:40;2.88;;;1.25;;
18411;SDS011;27097;51.738;19.472;2022-07-06T12:54:18;2.13;;;1.20;;
18411;SDS011;27097;51.738;19.472;2022-07-06T12:56:58;1.40;;;1.20;;
18411;SDS011;27097;51.738;19.472;2022-07-06T12:59:30;1.33;;;1.20;;
18411;SDS011;27097;51.738;19.472;2022-07-06T13:01:58;2.95;;;1.40;;
18411;SDS011;27097;51.738;19.472;2022-07-06T13:04:26;3.05;;;1.42;;
18411;SDS011;27097;51.738;19.472;2022-07-06T13:06:56;3.03;;;1.40;;
18411;SDS011;27097;51.738;19.472;2022-07-06T13:09:23;5.28;;;1.58;;
18411;SDS011;27097;51.738;19.472;2022-07-06T13:11:51;5.35;;;2.15;;
18411;SDS011;27097;51.738;19.472;2022-07-06T13:14:18;1.98;;;1.45;;
18411;SDS011;27097;51.738;19.472;2022-07-06T13:16:45;1.70;;;1.20;;
18411;SDS011;27097;51.738;19.472;2022-07-06T13:19:13;3.90;;;1.50;;
18411;SDS011;27097;51.738;19.472;2022-07-06T13:21:41;3.55;;;1.58;;
18411;SDS011;27097;51.738;19.472;2022-07-06T13:24:18;3.22;;;1.67;;
18411;SDS011;27097;51.738;19.472;2022-07-06T13:26:45;3.38;;;1.50;;
18411;SDS011;27097;51.738;19.472;2022-07-06T13:29:12;2.63;;;1.60;;
18411;SDS011;27097;51.738;19.472;2022-07-06T13:31:39;3.67;;;1.50;;
18411;SDS011;27097;51.738;19.472;2022-07-06T13:34:07;3.58;;;1.60;;
18411;SDS011;27097;51.738;19.472;2022-07-06T13:36:34;2.00;;;1.30;;
18411;SDS011;27097;51.738;19.472;2022-07-06T13:39:02;4.85;;;1.58;;
18411;SDS011;27097;51.738;19.472;2022-07-06T13:41:31;3.75;;;1.50;;
18411;SDS011;27097;51.738;19.472;2022-07-06T13:43:58;2.67;;;1.45;;
18411;SDS011;27097;51.738;19.472;2022-07-06T13:46:26;7.72;;;1.50;;
18411;SDS011;27097;51.738;19.472;2022-07-06T13:48:53;6.55;;;1.60;;
18411;SDS011;27097;51.738;19.472;2022-07-06T13:51:21;2.47;;;1.52;;
18411;SDS011;27097;51.738;19.472;2022-07-06T13:53:49;3.47;;;1.65;;
18411;SDS011;27097;51.738;19.472;2022-07-06T13:56:17;3.35;;;1.60;;
18411;SDS011;27097;51.738;19.472;2022-07-06T13:58:45;4.50;;;1.45;;
18411;SDS011;27097;51.738;19.472;2022-07-06T14:01:12;2.10;;;1.58;;
18411;SDS011;27097;51.738;19.472;2022-07-06T14:03:39;3.90;;;1.45;;
18411;SDS011;27097;51.738;19.472;2022-07-06T14:06:07;3.78;;;1.50;;
18411;SDS011;27097;51.738;19.472;2022-07-06T14:08:35;3.38;;;1.38;;
18411;SDS011;27097;51.738;19.472;2022-07-06T14:11:04;2.15;;;1.20;;
18411;SDS011;27097;51.738;19.472;2022-07-06T14:13:32;7.90;;;1.52;;
18411;SDS011;27097;51.738;19.472;2022-07-06T14:16:01;1.85;;;1.30;;
18411;SDS011;27097;51.738;19.472;2022-07-06T14:18:29;2.53;;;1.23;;
18411;SDS011;27097;51.738;19.472;2022-07-06T14:20:56;2.22;;;1.20;;
18411;SDS011;27097;51.738;19.472;2022-07-06T14:23:23;1.77;;;1.20;;
18411;SDS011;27097;51.738;19.472;2022-07-06T14:25:50;4.15;;;1.30;;
18411;SDS011;27097;51.738;19.472;2022-07-06T14:28:20;3.78;;;1.17;;
18411;SDS011;27097;51.738;19.472;2022-07-06T14:30:47;1.60;;;1.30;;
18411;SDS011;27097;51.738;19.472;2022-07-06T14:33:15;1.70;;;1.30;;
18411;SDS011;27097;51.738;19.472;2022-07-06T14:35:45;2.35;;;1.30;;
18411;SDS011;27097;51.738;19.472;2022-07-06T14:38:13;1.60;;;1.13;;
18411;SDS011;27097;51.738;19.472;2022-07-06T14:40:40;3.55;;;1.33;;
18411;SDS011;27097;51.738;19.472;2022-07-06T14:43:08;3.60;;;1.38;;
18411;SDS011;27097;51.738;19.472;2022-07-06T14:45:35;1.45;;;1.20;;
18411;SDS011;27097;51.738;19.472;2022-07-06T14:48:02;3.00;;;1.23;;